Time;durP1;ratioP1;P1;durP2;ratioP2;P2;SDS_P1;SDS_P2;PMS_P1;PMS_P2;Temp;Humidity;BMP_temperature;BMP_pressure;BME280_temperature;BME280_humidity;BME280_pressure;Samples;Min_cycle;Max_cycle;Signal;HPM_P1;HPM_P2
2022/08/21 00:02:15;;;;;;;9.82;4.15;;;;;;;16.49;100.00;96351.38;4990340;28;20050;-75
2022/08/21 00:04:42;;;;;;;10.30;4.35;;;;;;;16.33;100.00;96338.44;4991022;28;20054;-76
2022/08/21 00:07:09;;;;;;;6.15;4.00;;;;;;;16.40;100.00;96349.63;4990315;28;20057;-75
2022/08/21 00:09:35;;;;;;;8.45;4.00;;;;;;;16.47;100.00;96359.19;4990523;28;20038;-75
2022/08/21 00:12:02;;;;;;;9.57;4.35;;;;;;;16.54;100.00;96364.84;4990557;28;20050;-74
2022/08/21 00:14:32;;;;;;;10.98;4.50;;;;;;;16.60;100.00;96346.91;4990777;28;20391;-74
2022/08/21 00:17:00;;;;;;;10.38;4.70;;;;;;;16.63;100.00;96351.72;4992424;28;20057;-74
2022/08/21 00:19:26;;;;;;;7.38;4.05;;;;;;;16.56;100.00;96340.56;4987856;28;20045;-74
2022/08/21 00:21:53;;;;;;;8.55;4.35;;;;;;;16.46;100.00;96352.09;4990809;28;20051;-74
2022/08/21 00:24:20;;;;;;;7.22;4.55;;;;;;;16.42;100.00;96344.56;4986943;28;20038;-74
2022/08/21 00:26:47;;;;;;;9.48;5.15;;;;;;;16.34;100.00;96337.31;4991013;28;20046;-73
2022/08/21 00:29:14;;;;;;;9.75;4.60;;;;;;;16.38;100.00;96340.91;4994180;28;20070;-74
2022/08/21 00:31:43;;;;;;;13.68;5.60;;;;;;;16.27;100.00;96337.13;4994682;28;20046;-74
2022/08/21 00:34:11;;;;;;;10.65;4.78;;;;;;;16.24;100.00;96335.09;4994106;28;20522;-73
2022/08/21 00:36:38;;;;;;;10.07;4.03;;;;;;;16.23;100.00;96333.47;4994727;28;20057;-74
2022/08/21 00:39:05;;;;;;;7.35;4.75;;;;;;;16.25;100.00;96335.88;4993770;28;20049;-73
2022/08/21 00:41:32;;;;;;;9.07;4.30;;;;;;;16.27;100.00;96322.59;4994390;28;20058;-74
2022/08/21 00:43:58;;;;;;;9.85;5.10;;;;;;;16.22;100.00;96320.09;4993947;28;20047;-74
2022/08/21 00:46:25;;;;;;;10.77;5.03;;;;;;;16.12;100.00;96310.44;4994082;28;20057;-73
2022/08/21 00:48:53;;;;;;;7.32;4.72;;;;;;;16.13;100.00;96317.53;4994326;28;20058;-73
2022/08/21 00:51:25;;;;;;;7.85;4.47;;;;;;;16.07;100.00;96322.47;4993591;28;20046;-74
2022/08/21 00:53:56;;;;;;;8.07;4.18;;;;;;;16.03;100.00;96315.34;4994158;28;20409;-75
2022/08/21 00:56:24;;;;;;;14.27;4.93;;;;;;;16.06;100.00;96322.84;4994001;28;20046;-74
2022/08/21 00:58:52;;;;;;;7.03;4.10;;;;;;;15.96;100.00;96312.38;4994287;28;20050;-74
2022/08/21 01:01:20;;;;;;;7.13;4.30;;;;;;;15.96;100.00;96312.38;4993851;28;20073;-74
2022/08/21 01:03:47;;;;;;;7.47;4.22;;;;;;;15.89;100.00;96311.06;4993831;28;20042;-74
2022/08/21 01:06:14;;;;;;;8.80;4.80;;;;;;;15.83;100.00;96309.72;4993378;28;20058;-74
2022/08/21 01:08:41;;;;;;;8.00;4.53;;;;;;;15.87;100.00;96307.88;4993961;28;20046;-74
2022/08/21 01:11:08;;;;;;;8.18;4.65;;;;;;;15.91;100.00;96302.47;4993307;28;20050;-74
2022/08/21 01:13:39;;;;;;;7.32;4.30;;;;;;;15.85;100.00;96299.19;4993700;28;20053;-74
2022/08/21 01:16:09;;;;;;;7.88;4.22;;;;;;;15.87;100.00;96304.34;4993463;28;20490;-74
2022/08/21 01:18:36;;;;;;;7.22;4.05;;;;;;;15.85;100.00;96301.94;4993779;28;20043;-74
2022/08/21 01:21:07;;;;;;;8.52;4.30;;;;;;;15.69;100.00;96301.13;4993240;28;20070;-74
2022/08/21 01:23:34;;;;;;;9.98;4.40;;;;;;;15.65;100.00;96302.97;4993044;28;20047;-74
2022/08/21 01:26:01;;;;;;;6.65;3.97;;;;;;;15.63;100.00;96297.03;4993279;28;20061;-74
2022/08/21 01:28:31;;;;;;;7.47;4.07;;;;;;;15.63;100.00;96297.03;4992848;28;20053;-75
2022/08/21 01:30:59;;;;;;;8.50;4.55;;;;;;;15.62;100.00;96298.16;4993274;28;20050;-74
2022/08/21 01:33:27;;;;;;;8.82;4.43;;;;;;;15.68;100.00;96291.28;4992760;28;20049;-74
2022/08/21 01:35:54;;;;;;;7.10;3.83;;;;;;;15.73;100.00;96299.25;4993361;28;20042;-75
2022/08/21 01:38:22;;;;;;;7.93;4.18;;;;;;;15.76;100.00;96300.50;4991783;28;20502;-76
2022/08/21 01:40:49;;;;;;;6.85;3.90;;;;;;;15.70;100.00;96299.97;4993180;28;20102;-75
2022/08/21 01:43:17;;;;;;;8.35;3.75;;;;;;;15.65;100.00;96301.00;4992540;28;20046;-75
2022/08/21 01:45:43;;;;;;;10.05;4.28;;;;;;;15.72;100.00;96300.41;4993232;28;20050;-75
2022/08/21 01:48:10;;;;;;;11.45;4.30;;;;;;;15.75;100.00;96299.69;4992482;28;20050;-75
2022/08/21 01:50:37;;;;;;;7.53;4.15;;;;;;;15.74;100.00;96303.59;4992893;28;20502;-74
2022/08/21 01:53:04;;;;;;;10.10;4.30;;;;;;;15.52;100.00;96293.19;4992628;28;20050;-73
2022/08/21 01:55:32;;;;;;;8.70;3.97;;;;;;;15.62;100.00;96298.97;4992272;28;20042;-74
2022/08/21 01:58:00;;;;;;;8.95;3.55;;;;;;;15.72;100.00;96300.41;4993018;28;20054;-76
2022/08/21 02:00:26;;;;;;;9.20;3.50;;;;;;;15.68;100.00;96301.47;4992680;28;20570;-75
2022/08/21 02:02:53;;;;;;;7.47;4.00;;;;;;;15.64;100.00;96301.38;4992802;28;20050;-75
2022/08/21 02:05:20;;;;;;;12.38;3.65;;;;;;;15.61;100.00;96296.56;4992094;28;20092;-75
2022/08/21 02:07:50;;;;;;;6.53;3.50;;;;;;;15.63;100.00;96295.09;4992897;28;20529;-75
2022/08/21 02:10:20;;;;;;;7.50;3.72;;;;;;;15.66;100.00;96293.59;4992154;28;20042;-75
2022/08/21 02:12:48;;;;;;;9.20;3.95;;;;;;;15.56;100.00;96294.88;4992827;28;20055;-75
2022/08/21 02:15:17;;;;;;;10.27;3.95;;;;;;;15.55;100.00;96289.72;4991906;28;20133;-76
2022/08/21 02:17:46;;;;;;;5.53;3.33;;;;;;;15.55;100.00;96292.47;4992422;28;20062;-75
2022/08/21 02:20:20;;;;;;;9.70;3.83;;;;;;;15.54;100.00;96290.88;4991972;28;20456;-75
2022/08/21 02:22:47;;;;;;;6.55;3.72;;;;;;;15.47;100.00;96282.47;4995049;28;20125;-75
2022/08/21 02:25:13;;;;;;;7.47;3.22;;;;;;;15.42;100.00;96282.72;4994295;28;20051;-74
2022/08/21 02:27:42;;;;;;;9.55;3.60;;;;;;;15.44;100.00;96277.66;4995852;28;20038;-75
2022/08/21 02:30:13;;;;;;;8.20;3.83;;;;;;;15.42;100.00;96277.22;4995760;28;20050;-76
2022/08/21 02:32:39;;;;;;;8.80;3.83;;;;;;;15.37;100.00;96276.31;4995111;28;20046;-74
2022/08/21 02:35:07;;;;;;;8.13;3.88;;;;;;;15.27;100.00;96278.78;4993878;28;20042;-75
2022/08/21 02:37:34;;;;;;;7.45;4.15;;;;;;;15.24;100.00;96277.53;4993946;28;20042;-75
2022/08/21 02:40:00;;;;;;;8.30;3.67;;;;;;;15.33;100.00;96282.84;4993619;28;20047;-74
2022/08/21 02:42:27;;;;;;;11.23;3.78;;;;;;;15.26;100.00;96266.22;4993077;28;20050;-75
2022/08/21 02:44:53;;;;;;;7.35;3.90;;;;;;;15.25;100.00;96284.63;4993786;28;20058;-75
2022/08/21 02:47:21;;;;;;;5.75;3.58;;;;;;;15.25;100.00;96276.41;4992400;28;20050;-75
2022/08/21 02:49:48;;;;;;;10.15;4.32;;;;;;;15.20;100.00;96284.88;4992934;28;20511;-75
2022/08/21 02:52:14;;;;;;;6.05;3.42;;;;;;;15.22;100.00;96279.03;4992457;28;20543;-75
2022/08/21 02:54:41;;;;;;;7.20;3.72;;;;;;;15.16;100.00;96278.50;4992651;28;20387;-74
2022/08/21 02:57:08;;;;;;;8.77;4.13;;;;;;;15.11;100.00;96278.72;4992610;28;20058;-75
2022/08/21 02:59:34;;;;;;;5.80;3.17;;;;;;;15.12;100.00;96280.31;4992708;28;20461;-76
2022/08/21 03:02:00;;;;;;;8.35;3.58;;;;;;;15.18;100.00;96280.88;4992431;28;20047;-74
2022/08/21 03:04:28;;;;;;;6.35;3.50;;;;;;;15.18;100.00;96281.66;4991667;28;20042;-76
2022/08/21 03:06:56;;;;;;;6.03;3.65;;;;;;;15.21;100.00;96283.72;4992055;28;20046;-75
2022/08/21 03:09:22;;;;;;;6.50;3.92;;;;;;;15.13;100.00;96281.91;4991137;28;20540;-76
2022/08/21 03:11:49;;;;;;;7.32;3.95;;;;;;;14.94;100.00;96279.03;4991779;28;20050;-76
2022/08/21 03:14:15;;;;;;;8.77;3.75;;;;;;;15.02;100.00;96281.59;4991016;28;20043;-77
2022/08/21 03:16:42;;;;;;;9.18;3.70;;;;;;;15.07;100.00;96283.31;4991660;28;20042;-76
2022/08/21 03:19:08;;;;;;;11.30;4.28;;;;;;;14.96;100.00;96287.69;4991032;28;20050;-77
2022/08/21 03:21:36;;;;;;;8.05;3.65;;;;;;;15.01;100.00;96282.75;4991538;28;20054;-75
2022/08/21 03:24:04;;;;;;;5.57;3.40;;;;;;;15.12;100.00;96291.28;4990598;28;20494;-76
2022/08/21 03:26:31;;;;;;;11.32;4.18;;;;;;;15.05;100.00;96288.34;4991431;28;20129;-75
2022/08/21 03:28:57;;;;;;;7.65;3.95;;;;;;;15.06;100.00;96287.22;4991485;28;20053;-75
2022/08/21 03:31:26;;;;;;;7.35;4.20;;;;;;;15.14;100.00;96295.28;4990695;28;20046;-76
2022/08/21 03:33:54;;;;;;;7.53;3.38;;;;;;;15.18;100.00;96294.59;4991346;28;20072;-75
2022/08/21 03:36:21;;;;;;;7.32;3.95;;;;;;;15.21;100.00;96293.91;4990935;28;20534;-75
2022/08/21 03:38:49;;;;;;;7.25;3.30;;;;;;;15.21;100.00;96300.19;4991150;28;20541;-75
2022/08/21 03:41:15;;;;;;;7.47;3.47;;;;;;;15.23;100.00;96302.56;4990642;28;20046;-75
2022/08/21 03:43:42;;;;;;;9.23;4.00;;;;;;;15.25;100.00;96298.34;4991264;28;20050;-75
2022/08/21 03:46:08;;;;;;;7.60;3.35;;;;;;;15.26;100.00;96308.16;4990619;28;20494;-75
2022/08/21 03:48:36;;;;;;;5.60;3.08;;;;;;;15.25;100.00;96306.56;4991220;28;20043;-75
2022/08/21 03:51:03;;;;;;;7.32;3.60;;;;;;;15.25;100.00;96301.09;4990494;28;20046;-75
2022/08/21 03:53:30;;;;;;;7.45;3.85;;;;;;;15.24;100.00;96304.94;4990787;28;20409;-76
2022/08/21 03:55:58;;;;;;;9.32;3.72;;;;;;;15.18;100.00;96306.34;4991089;28;20100;-75
2022/08/21 03:58:27;;;;;;;5.78;3.50;;;;;;;15.22;100.00;96309.19;4990750;28;20520;-75
2022/08/21 04:00:57;;;;;;;7.15;4.00;;;;;;;15.15;100.00;96312.56;4991047;28;20049;-75
2022/08/21 04:03:23;;;;;;;7.45;3.72;;;;;;;15.10;100.00;96316.34;4996529;28;20053;-75
2022/08/21 04:05:50;;;;;;;8.07;4.15;;;;;;;15.15;100.00;96312.56;4997698;28;20406;-74
2022/08/21 04:08:18;;;;;;;9.35;3.75;;;;;;;14.87;100.00;96307.03;4997024;28;20057;-75
2022/08/21 04:10:47;;;;;;;6.15;3.42;;;;;;;14.97;100.00;96311.22;4997649;28;20050;-75
2022/08/21 04:13:15;;;;;;;6.50;3.88;;;;;;;15.01;100.00;96312.13;4996918;28;20465;-75
2022/08/21 04:15:42;;;;;;;10.55;3.60;;;;;;;15.03;100.00;96318.06;4997463;28;20081;-75
2022/08/21 04:18:09;;;;;;;6.63;3.75;;;;;;;15.03;100.00;96318.06;4996878;28;20054;-74
2022/08/21 04:20:36;;;;;;;7.63;3.78;;;;;;;14.95;100.00;96319.00;4997567;28;20051;-76
2022/08/21 04:23:03;;;;;;;4.95;3.13;;;;;;;14.96;100.00;96320.59;4996743;28;20537;-73
2022/08/21 04:25:30;;;;;;;10.15;4.50;;;;;;;14.73;100.00;96318.38;4996008;28;20053;-75
2022/08/21 04:27:58;;;;;;;7.95;3.65;;;;;;;14.65;100.00;96316.53;4997367;28;20458;-74
2022/08/21 04:30:26;;;;;;;6.63;3.92;;;;;;;14.72;100.00;96326.91;4996693;28;20052;-75
2022/08/21 04:32:53;;;;;;;9.40;3.50;;;;;;;14.72;100.00;96330.50;4997248;28;20042;-74
2022/08/21 04:35:22;;;;;;;7.38;3.35;;;;;;;14.76;100.00;96325.88;4996786;28;20050;-74
2022/08/21 04:37:49;;;;;;;7.45;3.60;;;;;;;14.77;100.00;96333.00;4997246;28;20050;-74
2022/08/21 04:40:17;;;;;;;11.15;3.97;;;;;;;14.77;100.00;96330.25;4996779;28;20058;-74
2022/08/21 04:42:46;;;;;;;12.32;5.22;;;;;;;14.63;100.00;96335.28;4997185;28;20042;-75
2022/08/21 04:45:20;;;;;;;9.50;3.88;;;;;;;14.74;100.00;96336.41;4996641;28;20057;-75
2022/08/21 04:47:50;;;;;;;10.55;3.90;;;;;;;14.70;100.00;96340.97;4997175;28;20052;-75
2022/08/21 04:50:16;;;;;;;8.85;3.55;;;;;;;14.72;100.00;96335.97;4996582;28;20138;-75
2022/08/21 04:52:44;;;;;;;7.25;3.80;;;;;;;14.76;100.00;96336.84;4997103;28;20042;-75
2022/08/21 04:55:11;;;;;;;6.82;3.85;;;;;;;14.64;100.00;96336.09;4996414;28;20054;-75
2022/08/21 04:57:38;;;;;;;7.57;3.72;;;;;;;14.60;100.00;96335.97;4996944;28;20511;-75
2022/08/21 05:00:07;;;;;;;7.65;4.18;;;;;;;14.56;100.00;96346.00;4996504;28;20062;-75
2022/08/21 05:02:34;;;;;;;8.13;4.35;;;;;;;14.69;100.00;96341.34;4997082;28;20045;-75
2022/08/21 05:05:02;;;;;;;7.80;3.92;;;;;;;14.64;100.00;96339.63;4996654;28;20050;-76
2022/08/21 05:07:31;;;;;;;6.40;3.63;;;;;;;14.73;100.00;96343.03;4996564;28;20045;-74
2022/08/21 05:10:00;;;;;;;10.88;3.95;;;;;;;14.69;100.00;96347.59;4996778;28;20046;-75
2022/08/21 05:12:26;;;;;;;7.50;3.88;;;;;;;14.77;100.00;96346.69;4996490;28;20398;-75
2022/08/21 05:14:53;;;;;;;9.20;4.25;;;;;;;14.81;100.00;96352.28;4992043;28;20049;-75
2022/08/21 05:17:19;;;;;;;7.18;4.05;;;;;;;14.82;100.00;96354.66;4993107;28;20498;-75
2022/08/21 05:19:45;;;;;;;6.95;4.03;;;;;;;14.82;100.00;96353.84;4993835;28;20129;-76
2022/08/21 05:22:20;;;;;;;7.88;4.13;;;;;;;14.82;100.00;96346.44;4993253;28;20050;-75
2022/08/21 05:24:46;;;;;;;7.88;3.90;;;;;;;14.86;100.00;96354.78;4993406;28;20050;-76
2022/08/21 05:27:13;;;;;;;9.23;4.53;;;;;;;14.91;100.00;96356.47;4993246;28;20046;-76
2022/08/21 05:29:39;;;;;;;6.35;3.92;;;;;;;14.94;100.00;96358.53;4993543;28;20057;-74
2022/08/21 05:32:13;;;;;;;7.22;4.03;;;;;;;15.02;100.00;96352.13;4993134;28;20054;-73
2022/08/21 05:34:42;;;;;;;7.35;4.25;;;;;;;15.04;100.00;96366.28;4993368;28;20050;-75
2022/08/21 05:37:12;;;;;;;10.93;4.40;;;;;;;15.08;100.00;96361.69;4992869;28;20039;-75
2022/08/21 05:39:39;;;;;;;9.63;4.32;;;;;;;14.94;100.00;96362.09;4993415;28;20166;-75
2022/08/21 05:42:06;;;;;;;7.50;4.43;;;;;;;15.08;100.00;96364.44;4992702;28;20447;-74
2022/08/21 05:44:32;;;;;;;14.63;4.22;;;;;;;14.96;100.00;96365.25;4993456;28;20042;-75
2022/08/21 05:47:04;;;;;;;6.78;3.90;;;;;;;15.19;100.00;96362.00;4993226;28;20046;-75
2022/08/21 05:49:30;;;;;;;7.55;3.80;;;;;;;15.19;100.00;96357.34;4992966;28;20042;-75
2022/08/21 05:51:57;;;;;;;8.93;4.32;;;;;;;15.26;100.00;96365.78;4993173;28;20411;-76
2022/08/21 05:54:25;;;;;;;6.93;4.05;;;;;;;15.22;100.00;96361.31;4992530;28;20510;-75
2022/08/21 05:56:51;;;;;;;7.28;4.18;;;;;;;15.30;100.00;96358.44;4993140;28;20057;-74
2022/08/21 05:59:18;;;;;;;6.88;3.65;;;;;;;15.39;100.00;96363.78;4992539;28;20047;-75
2022/08/21 06:01:45;;;;;;;6.85;3.90;;;;;;;15.40;100.00;96365.38;4992867;28;20045;-75
2022/08/21 06:04:11;;;;;;;8.18;4.40;;;;;;;15.54;100.00;96363.03;4992564;28;20470;-75
2022/08/21 06:06:38;;;;;;;8.35;3.92;;;;;;;15.46;100.00;96365.94;4993016;28;20050;-75
2022/08/21 06:09:04;;;;;;;7.28;3.90;;;;;;;15.55;100.00;96369.31;4992457;28;20391;-74
2022/08/21 06:11:33;;;;;;;7.30;4.07;;;;;;;15.69;100.00;96364.25;4992681;28;20069;-75
2022/08/21 06:14:00;;;;;;;11.98;4.15;;;;;;;15.62;100.00;96375.00;4992832;28;20043;-75
2022/08/21 06:16:28;;;;;;;7.60;4.30;;;;;;;15.65;100.00;96369.63;4992425;28;20048;-75
2022/08/21 06:18:55;;;;;;;7.20;3.95;;;;;;;15.78;100.00;96366.84;4992626;28;20512;-75
2022/08/21 06:21:21;;;;;;;16.17;4.20;;;;;;;15.85;100.00;96367.03;4992213;28;20413;-76
2022/08/21 06:23:48;;;;;;;9.98;4.25;;;;;;;15.93;100.00;96362.53;4992512;28;20043;-76
2022/08/21 06:26:15;;;;;;;8.00;4.40;;;;;;;15.90;100.00;96370.31;4991737;28;20046;-75
2022/08/21 06:28:43;;;;;;;8.00;3.72;;;;;;;16.03;100.00;96367.53;4992583;28;20049;-74
2022/08/21 06:31:15;;;;;;;10.63;4.25;;;;;;;15.87;100.00;96365.53;4992065;28;20050;-75
2022/08/21 06:33:42;;;;;;;8.63;3.42;;;;;;;15.98;100.00;96365.03;4992160;28;20046;-75
2022/08/21 06:36:09;;;;;;;8.75;4.15;;;;;;;16.17;100.00;96367.88;4991691;28;20054;-75
2022/08/21 06:38:35;;;;;;;6.15;3.65;;;;;;;16.21;100.00;96368.75;4992279;28;20046;-74
2022/08/21 06:41:02;;;;;;;7.40;3.97;;;;;;;16.17;100.00;96365.13;4991923;28;20494;-74
2022/08/21 06:43:28;;;;;;;8.07;3.92;;;;;;;16.18;100.00;96364.78;4992258;28;20034;-75
2022/08/21 06:45:56;;;;;;;9.63;4.20;;;;;;;16.33;100.00;96367.88;4992032;28;20046;-75
2022/08/21 06:48:22;;;;;;;7.97;3.95;;;;;;;16.22;99.99;96353.06;4991550;28;20046;-75
2022/08/21 06:50:49;;;;;;;9.23;3.83;;;;;;;16.26;100.00;96354.75;4992081;28;20570;-74
2022/08/21 06:53:19;;;;;;;7.22;4.45;;;;;;;16.38;100.00;96357.41;4991706;28;20058;-75
2022/08/21 06:55:46;;;;;;;7.72;4.32;;;;;;;16.40;100.00;96354.31;4991930;28;20050;-75
2022/08/21 06:58:13;;;;;;;7.15;4.32;;;;;;;16.55;98.16;96355.44;4991472;28;20055;-76
2022/08/21 07:00:43;;;;;;;7.18;4.10;;;;;;;16.43;97.23;96354.38;4992120;28;20097;-76
2022/08/21 07:03:22;;;;;;;8.45;4.32;;;;;;;16.58;99.88;96355.53;4991453;28;20046;-75
2022/08/21 07:05:49;;;;;;;7.25;3.97;;;;;;;16.56;98.96;96354.31;4991880;28;20498;-74
2022/08/21 07:08:16;;;;;;;9.45;4.18;;;;;;;16.67;97.11;96347.09;4991394;28;20061;-74
2022/08/21 07:10:42;;;;;;;8.70;4.18;;;;;;;16.72;95.60;96349.63;4991776;28;20494;-76
2022/08/21 07:13:09;;;;;;;8.82;4.57;;;;;;;16.79;95.30;96354.47;4991009;28;20528;-75
2022/08/21 07:15:35;;;;;;;9.10;4.20;;;;;;;16.89;95.93;96349.22;4991666;28;20490;-75
2022/08/21 07:18:02;;;;;;;13.93;4.70;;;;;;;16.99;97.07;96347.84;4991196;28;20051;-74
2022/08/21 07:20:31;;;;;;;12.55;4.88;;;;;;;16.92;97.10;96348.50;4992015;28;20133;-75
2022/08/21 07:23:02;;;;;;;7.60;4.35;;;;;;;17.00;96.64;96346.69;4993860;28;20042;-74
2022/08/21 07:25:29;;;;;;;9.75;4.72;;;;;;;17.01;94.49;96350.25;4996060;28;20042;-75
2022/08/21 07:27:56;;;;;;;7.20;4.60;;;;;;;17.20;93.96;96347.53;4996285;28;20490;-75
2022/08/21 07:30:23;;;;;;;8.38;4.78;;;;;;;17.28;96.28;96352.03;4995222;28;20046;-75
2022/08/21 07:32:50;;;;;;;9.00;5.13;;;;;;;17.52;96.80;96353.69;4995408;28;20069;-76
2022/08/21 07:35:17;;;;;;;11.27;5.07;;;;;;;17.60;92.38;96349.13;4992745;28;20049;-75
2022/08/21 07:37:45;;;;;;;11.23;5.15;;;;;;;17.74;94.18;96350.22;4991323;28;20058;-75
2022/08/21 07:40:13;;;;;;;13.20;4.80;;;;;;;17.83;91.45;96350.00;4991257;28;20057;-75
2022/08/21 07:42:42;;;;;;;9.48;4.90;;;;;;;17.94;86.10;96342.72;4991423;28;20050;-76
2022/08/21 07:45:10;;;;;;;9.07;4.57;;;;;;;18.49;86.32;96337.75;4990888;28;20081;-75
2022/08/21 07:47:36;;;;;;;10.32;4.57;;;;;;;18.99;85.43;96335.75;4990224;28;20050;-75
2022/08/21 07:50:04;;;;;;;8.57;4.45;;;;;;;19.41;83.26;96345.00;4991079;28;20053;-76
2022/08/21 07:52:30;;;;;;;8.23;4.68;;;;;;;19.56;81.68;96346.75;4991116;28;20043;-75
2022/08/21 07:54:58;;;;;;;6.05;3.80;;;;;;;20.02;81.44;96347.31;4991049;28;20053;-75
2022/08/21 07:57:24;;;;;;;5.72;3.63;;;;;;;20.31;82.99;96336.53;4990929;28;20049;-74
2022/08/21 07:59:51;;;;;;;6.32;4.05;;;;;;;20.46;77.92;96342.94;4991317;28;20051;-75
2022/08/21 08:02:23;;;;;;;8.10;3.45;;;;;;;20.58;76.91;96343.50;4990819;28;20053;-76
2022/08/21 08:04:50;;;;;;;5.32;3.28;;;;;;;20.61;76.06;96341.13;4991382;28;20417;-76
2022/08/21 08:07:17;;;;;;;6.38;3.60;;;;;;;20.65;75.00;96328.91;4990946;28;20790;-76
2022/08/21 08:09:44;;;;;;;5.50;3.80;;;;;;;20.87;77.21;96335.38;4991486;28;20050;-75
2022/08/21 08:12:12;;;;;;;5.72;3.65;;;;;;;20.84;72.00;96330.66;4990612;28;20073;-76
2022/08/21 08:14:38;;;;;;;10.18;4.40;;;;;;;20.87;74.84;96329.84;4991324;28;20050;-77
2022/08/21 08:17:05;;;;;;;8.98;4.10;;;;;;;21.32;72.50;96333.31;4991316;28;20050;-75
2022/08/21 08:19:31;;;;;;;6.57;3.70;;;;;;;21.50;70.86;96331.41;4991359;28;20053;-75
2022/08/21 08:21:58;;;;;;;8.98;3.67;;;;;;;21.23;72.35;96335.59;4991080;28;20098;-79
2022/08/21 08:24:24;;;;;;;9.60;4.00;;;;;;;21.22;71.30;96339.56;4990615;28;20509;-78
2022/08/21 08:26:51;;;;;;;9.63;3.80;;;;;;;21.15;73.37;96334.00;4991002;28;20494;-76
2022/08/21 08:29:19;;;;;;;7.93;4.05;;;;;;;21.21;71.18;96332.44;4990711;28;20050;-78
2022/08/21 08:31:45;;;;;;;11.98;4.22;;;;;;;21.27;71.34;96328.13;4991351;28;20134;-76
2022/08/21 08:34:11;;;;;;;9.30;4.30;;;;;;;21.18;77.21;96327.66;4990374;28;20050;-75
2022/08/21 08:36:38;;;;;;;9.90;4.35;;;;;;;21.40;77.63;96323.84;4990890;28;20046;-76
2022/08/21 08:39:06;;;;;;;8.45;4.63;;;;;;;20.97;70.69;96320.81;4990224;28;20051;-76
2022/08/21 08:41:33;;;;;;;11.02;4.95;;;;;;;21.11;76.44;96317.34;4990951;28;20042;-76
2022/08/21 08:44:04;;;;;;;8.65;4.22;;;;;;;20.84;73.04;96323.13;4990816;28;20052;-75
2022/08/21 08:46:36;;;;;;;9.70;4.38;;;;;;;20.69;73.78;96317.88;4990803;28;20437;-76
2022/08/21 08:49:09;;;;;;;8.80;4.53;;;;;;;20.10;74.74;96325.25;4993343;28;20105;-79
2022/08/21 08:51:39;;;;;;;;;;;;;;;19.88;76.89;96322.28;4995330;28;20133;-76
2022/08/21 08:54:11;;;;;;;8.73;4.22;;;;;;;19.77;77.86;96335.19;4993781;28;19922;-76
2022/08/21 08:56:39;;;;;;;9.68;5.00;;;;;;;20.10;76.52;96328.84;4994230;28;20057;-76
2022/08/21 08:59:12;;;;;;;10.20;4.45;;;;;;;20.61;77.71;96330.06;4993588;28;20538;-79
2022/08/21 09:01:40;;;;;;;;;;;;;;;20.78;74.75;96334.94;4994833;28;20465;-76
2022/08/21 09:04:07;;;;;;;12.05;4.40;;;;;;;20.99;75.21;96326.78;4993552;28;19921;-77
2022/08/21 09:06:43;;;;;;;12.38;4.95;;;;;;;21.26;73.68;96332.06;4994249;28;20050;-77
2022/08/21 09:09:23;;;;;;;11.73;4.78;;;;;;;21.28;71.51;96329.69;4993490;28;20077;-76
2022/08/21 09:11:57;;;;;;;12.20;5.63;;;;;;;21.19;73.55;96323.72;4994073;28;20057;-78
2022/08/21 09:14:29;;;;;;;11.93;5.05;;;;;;;21.44;72.33;96327.44;4993682;28;20042;-77
2022/08/21 09:17:05;;;;;;;11.85;4.95;;;;;;;21.42;73.37;96327.03;4994086;28;20050;-76
2022/08/21 09:19:48;;;;;;;11.65;4.97;;;;;;;21.18;72.73;96322.13;4993960;28;20541;-78
2022/08/21 09:22:35;;;;;;;10.75;5.07;;;;;;;21.14;74.04;96326.84;4993272;28;20061;-78
2022/08/21 09:25:11;;;;;;;10.40;5.20;;;;;;;20.94;72.12;96316.06;4993031;28;20046;-76
2022/08/21 09:27:38;;;;;;;9.30;4.10;;;;;;;20.89;73.98;96310.91;4993704;28;20045;-78
2022/08/21 09:30:07;;;;;;;10.00;4.40;;;;;;;21.03;73.19;96322.03;4992987;28;20475;-78
2022/08/21 09:32:37;;;;;;;12.82;4.72;;;;;;;20.94;76.37;96329.91;4993562;28;20046;-77
2022/08/21 09:35:08;;;;;;;7.85;4.47;;;;;;;21.10;73.74;96327.63;4992698;28;20046;-78
2022/08/21 09:37:45;;;;;;;11.07;4.95;;;;;;;21.02;73.39;96320.47;4993112;28;20042;-77
2022/08/21 09:40:21;;;;;;;11.60;5.05;;;;;;;21.09;75.40;96326.06;4992755;28;20046;-77
2022/08/21 09:42:56;;;;;;;9.20;4.65;;;;;;;20.91;71.10;96325.13;4993389;28;20054;-79
2022/08/21 09:45:24;;;;;;;8.48;4.22;;;;;;;21.06;70.47;96323.25;4992947;28;20522;-78
2022/08/21 09:47:52;;;;;;;9.95;4.18;;;;;;;20.93;72.51;96322.78;4993424;28;20073;-78
2022/08/21 09:50:22;;;;;;;12.25;5.63;;;;;;;21.00;75.01;96319.28;4992867;28;20514;-78
2022/08/21 09:52:51;;;;;;;8.40;4.30;;;;;;;21.18;73.75;96322.13;4993179;28;20077;-77
2022/08/21 09:58:08;;;;;;;8.40;4.22;;;;;;;21.35;74.98;96318.66;4992736;28;20053;-76
2022/08/21 10:00:36;;;;;;;9.45;4.88;;;;;;;21.27;74.88;96317.03;4992541;28;20046;-78
2022/08/21 10:03:18;;;;;;;12.27;4.97;;;;;;;21.32;74.87;96313.94;4992528;28;20050;-77
2022/08/21 10:05:54;;;;;;;7.97;4.63;;;;;;;21.30;73.15;96308.00;4992835;28;20054;-76
2022/08/21 10:08:24;;;;;;;10.48;5.30;;;;;;;21.34;70.83;96311.56;4992436;28;20049;-77
2022/08/21 10:10:53;;;;;;;8.43;4.55;;;;;;;21.70;73.32;96309.72;4992802;28;20057;-76
2022/08/21 10:13:28;;;;;;;10.98;5.03;;;;;;;21.94;70.63;96302.66;4992272;28;20058;-76
2022/08/21 10:16:14;;;;;;;7.97;4.63;;;;;;;22.05;72.11;96303.44;4992856;28;20513;-77
2022/08/21 10:18:47;;;;;;;9.07;5.13;;;;;;;21.84;70.63;96309.75;4992337;28;20398;-78
2022/08/21 10:21:22;;;;;;;7.72;4.20;;;;;;;21.94;69.07;96302.66;4992008;28;20043;-76
2022/08/21 10:24:01;;;;;;;7.93;4.97;;;;;;;21.79;69.50;96296.28;4992514;28;20065;-76
2022/08/21 10:26:38;;;;;;;9.38;5.20;;;;;;;21.77;68.76;96303.38;4991826;28;20042;-76
2022/08/21 10:29:16;;;;;;;9.73;5.07;;;;;;;21.93;68.77;96301.06;4992018;28;20045;-77
2022/08/21 10:31:51;;;;;;;9.55;4.70;;;;;;;22.07;70.25;96305.81;4992150;28;20042;-76
2022/08/21 10:34:29;;;;;;;7.03;4.15;;;;;;;;;;4991596;28;20051;-77
2022/08/21 10:37:07;;;;;;;8.98;4.07;;;;;;;21.72;70.80;96303.78;4991695;28;20145;-77
2022/08/21 10:39:37;;;;;;;8.43;3.92;;;;;;;21.52;69.02;96295.81;4991590;28;20066;-77
2022/08/21 10:42:23;;;;;;;6.47;3.10;;;;;;;21.56;70.83;96299.38;4991865;28;20057;-76
2022/08/21 10:45:02;;;;;;;9.30;4.03;;;;;;;21.55;72.33;96299.75;4991509;28;20057;-77
2022/08/21 10:47:34;;;;;;;6.82;3.75;;;;;;;21.33;72.03;96298.88;4991792;28;20043;-77
2022/08/21 10:50:19;;;;;;;10.13;4.72;;;;;;;21.31;72.92;96292.97;4991884;28;20046;-76
2022/08/21 10:53:03;;;;;;;9.65;4.75;;;;;;;21.50;72.02;96284.31;4991556;28;20048;-77
2022/08/21 10:55:34;;;;;;;8.20;4.30;;;;;;;21.74;69.81;96288.34;4991282;28;20046;-76
2022/08/21 10:58:05;;;;;;;7.78;4.32;;;;;;;21.90;69.22;96285.22;4991665;28;20053;-76
2022/08/21 11:00:39;;;;;;;8.82;3.50;;;;;;;22.12;69.74;96281.31;4991640;28;20097;-77
2022/08/21 11:03:14;;;;;;;8.85;4.38;;;;;;;22.29;69.89;96278.94;4991089;28;20054;-77
2022/08/21 11:05:47;;;;;;;10.02;4.22;;;;;;;22.51;63.63;96286.06;4991674;28;20042;-77
2022/08/21 11:08:16;;;;;;;;;;;;;;;22.55;62.94;96270.22;4991581;28;20085;-76
2022/08/21 11:10:46;;;;;;;9.52;4.45;;;;;;;22.67;68.37;96272.56;4991097;28;20005;-77
2022/08/21 11:13:18;;;;;;;8.88;4.45;;;;;;;22.72;64.35;96278.91;4990164;28;20054;-78
2022/08/21 11:15:52;;;;;;;6.18;3.55;;;;;;;22.84;64.37;96270.16;4991522;28;20056;-76
2022/08/21 11:18:25;;;;;;;8.40;4.15;;;;;;;22.92;62.84;96267.00;4990876;28;20077;-76
2022/08/21 11:21:03;;;;;;;5.45;3.67;;;;;;;22.73;62.63;96264.63;4991279;28;20050;-76
2022/08/21 11:23:39;;;;;;;7.65;3.80;;;;;;;22.81;62.08;96263.44;4990913;28;20049;-77
2022/08/21 11:26:10;;;;;;;6.75;3.50;;;;;;;22.83;63.48;96257.47;4990723;28;20046;-76
2022/08/21 11:28:44;;;;;;;5.53;3.50;;;;;;;22.76;64.13;96269.41;4991294;28;20042;-79
2022/08/21 11:31:28;;;;;;;6.60;3.90;;;;;;;22.61;65.04;96263.06;4990693;28;20060;-78
2022/08/21 11:34:08;;;;;;;8.63;4.03;;;;;;;22.45;66.80;96268.25;4991077;28;20077;-78
2022/08/21 11:36:44;;;;;;;6.32;3.78;;;;;;;22.33;66.54;96269.41;4990992;28;20039;-76
2022/08/21 11:39:20;;;;;;;8.50;3.85;;;;;;;22.24;67.93;96259.91;4990531;28;20054;-76
2022/08/21 11:41:55;;;;;;;7.35;3.63;;;;;;;22.20;65.88;96257.16;4991000;28;20053;-77